Time;durP1;ratioP1;P1;durP2;ratioP2;P2;SDS_P1;SDS_P2;PMS_P1;PMS_P2;Temp;Humidity;BMP_temperature;BMP_pressure;BME280_temperature;BME280_humidity;BME280_pressure;Samples;Min_cycle;Max_cycle;Signal;HPM_P1;HPM_P2
2022/04/12 00:00:45;;;;;;;1.20;1.10;;;;;;;;;;5052096;28;20082;-37
2022/04/12 00:03:11;;;;;;;3.33;0.77;;;;;;;;;;5051848;28;20497;-36
2022/04/12 00:05:38;;;;;;;1.73;1.23;;;;;;;;;;5051672;28;20017;-36
2022/04/12 00:08:04;;;;;;;1.67;1.17;;;;;;;;;;5051956;28;20387;-37
2022/04/12 00:10:29;;;;;;;1.10;0.95;;;;;;;;;;5052033;28;20102;-37
2022/04/12 00:12:56;;;;;;;2.65;1.45;;;;;;;;;;5051538;28;20087;-36
2022/04/12 00:15:21;;;;;;;1.83;1.05;;;;;;;;;;5051509;28;20029;-36
2022/04/12 00:20:33;;;;;;;1.55;1.00;;;;;;;;;;5051903;28;20039;-36
2022/04/12 00:22:59;;;;;;;3.72;1.20;;;;;;;;;;5051377;28;20021;-36
2022/04/12 00:25:25;;;;;;;1.27;0.85;;;;;;;;;;5051526;28;20040;-37
2022/04/12 00:27:51;;;;;;;0.88;0.70;;;;;;;;;;5051443;28;20013;-36
2022/04/12 00:30:17;;;;;;;1.02;0.75;;;;;;;;;;5049922;28;20033;-36
2022/04/12 00:32:42;;;;;;;0.70;0.70;;;;;;;;;;5051697;28;20131;-36
2022/04/12 00:35:08;;;;;;;4.00;0.90;;;;;;;;;;5051202;28;20037;-36
2022/04/12 00:37:34;;;;;;;9.38;1.13;;;;;;;;;;5051320;28;20029;-36
2022/04/12 00:39:59;;;;;;;1.20;0.93;;;;;;;;;;5051263;28;20039;-36
2022/04/12 00:42:25;;;;;;;0.90;0.70;;;;;;;;;;5051531;28;20025;-36
2022/04/12 00:44:50;;;;;;;3.25;1.20;;;;;;;;;;5051033;28;20056;-36
2022/04/12 00:47:16;;;;;;;1.10;1.00;;;;;;;;;;5051212;28;20031;-36
2022/04/12 00:49:42;;;;;;;6.10;1.35;;;;;;;;;;5051249;28;20036;-36
2022/04/12 00:52:07;;;;;;;3.63;1.70;;;;;;;;;;5051142;28;20025;-36
2022/04/12 00:54:33;;;;;;;1.02;0.80;;;;;;;;;;5051066;28;20474;-36
2022/04/12 00:56:59;;;;;;;3.45;0.82;;;;;;;;;;5051137;28;20025;-36
2022/04/12 00:59:25;;;;;;;4.00;0.57;;;;;;;;;;5051182;28;20029;-36
2022/04/12 01:01:50;;;;;;;0.77;0.68;;;;;;;;;;5051187;28;20483;-36
2022/04/12 01:04:16;;;;;;;0.93;0.52;;;;;;;;;;5051014;28;20482;-36
2022/04/12 01:06:41;;;;;;;1.25;0.82;;;;;;;;;;5051280;28;20021;-36
2022/04/12 01:09:07;;;;;;;1.10;0.73;;;;;;;;;;5051008;28;20488;-36
2022/04/12 01:11:33;;;;;;;1.38;1.20;;;;;;;;;;5051307;28;20155;-36
2022/04/12 01:13:59;;;;;;;0.80;0.77;;;;;;;;;;5050940;28;20107;-36
2022/04/12 01:16:24;;;;;;;3.22;0.65;;;;;;;;;;5050911;28;20029;-36
2022/04/12 01:18:50;;;;;;;0.65;0.63;;;;;;;;;;5051296;28;20025;-36
2022/04/12 01:21:15;;;;;;;1.05;0.63;;;;;;;;;;5051119;28;20498;-36
2022/04/12 01:23:53;;;;;;;0.98;0.95;;;;;;;;;;5050931;28;20029;-36
2022/04/12 01:26:19;;;;;;;0.60;0.50;;;;;;;;;;5050816;28;20252;-36
2022/04/12 01:28:44;;;;;;;0.90;0.90;;;;;;;;;;5051215;28;20121;-36
2022/04/12 01:31:10;;;;;;;2.85;1.10;;;;;;;;;;5050728;28;20106;-36
2022/04/12 01:33:36;;;;;;;1.63;1.17;;;;;;;;;;5050809;28;20048;-36
2022/04/12 01:36:01;;;;;;;0.85;0.70;;;;;;;;;;5050636;28;20036;-36
2022/04/12 01:38:28;;;;;;;1.30;1.10;;;;;;;;;;5051097;28;20040;-36
2022/04/12 01:40:53;;;;;;;1.35;0.57;;;;;;;;;;5050828;28;20031;-36
2022/04/12 01:43:18;;;;;;;1.30;0.90;;;;;;;;;;5053187;28;20029;-36
2022/04/12 01:45:44;;;;;;;3.35;0.93;;;;;;;;;;5054302;28;20053;-36
2022/04/12 01:48:09;;;;;;;0.75;0.63;;;;;;;;;;5054252;28;20037;-36
2022/04/12 01:50:35;;;;;;;1.70;1.15;;;;;;;;;;5054269;28;20047;-36
2022/04/12 01:53:00;;;;;;;1.90;1.20;;;;;;;;;;5052920;28;20019;-36
2022/04/12 01:55:26;;;;;;;1.27;0.90;;;;;;;;;;5054339;28;20384;-36
2022/04/12 01:57:51;;;;;;;1.77;0.93;;;;;;;;;;5054180;28;20082;-36
2022/04/12 02:00:16;;;;;;;2.65;1.05;;;;;;;;;;5054082;28;20044;-36
2022/04/12 02:02:42;;;;;;;2.72;1.20;;;;;;;;;;5053999;28;20017;-36
2022/04/12 02:05:07;;;;;;;1.33;0.90;;;;;;;;;;5054019;28;20036;-36
2022/04/12 02:07:33;;;;;;;4.13;0.98;;;;;;;;;;5053949;28;20371;-36
2022/04/12 02:09:58;;;;;;;1.85;1.00;;;;;;;;;;5053852;28;20039;-36
2022/04/12 02:12:24;;;;;;;3.55;0.70;;;;;;;;;;5054195;28;20444;-36
2022/04/12 02:14:49;;;;;;;4.80;1.17;;;;;;;;;;5054011;28;20036;-36
2022/04/12 02:17:14;;;;;;;5.78;1.30;;;;;;;;;;5053938;28;20032;-36
2022/04/12 02:19:40;;;;;;;3.47;1.13;;;;;;;;;;5053811;28;20048;-36
2022/04/12 02:22:05;;;;;;;4.53;1.27;;;;;;;;;;5053653;28;20092;-36
2022/04/12 02:24:30;;;;;;;2.65;1.15;;;;;;;;;;5053934;28;20094;-36
2022/04/12 02:26:56;;;;;;;1.17;1.08;;;;;;;;;;5053828;28;20021;-36
2022/04/12 02:29:21;;;;;;;5.25;1.17;;;;;;;;;;5052593;28;20441;-36
2022/04/12 02:31:47;;;;;;;4.03;1.38;;;;;;;;;;5053547;28;20027;-36
2022/04/12 02:34:12;;;;;;;1.00;0.90;;;;;;;;;;5053328;28;20029;-36
2022/04/12 02:36:37;;;;;;;1.55;1.08;;;;;;;;;;5053656;28;20086;-36
2022/04/12 02:39:03;;;;;;;1.85;1.45;;;;;;;;;;5053266;28;20463;-36
2022/04/12 02:41:29;;;;;;;3.03;1.00;;;;;;;;;;5053265;28;20036;-36
2022/04/12 02:43:54;;;;;;;3.55;1.30;;;;;;;;;;5053580;28;20036;-36
2022/04/12 02:46:19;;;;;;;1.55;1.40;;;;;;;;;;5052926;28;20059;-37
2022/04/12 02:48:45;;;;;;;1.42;1.15;;;;;;;;;;5053306;28;20471;-36
2022/04/12 02:51:10;;;;;;;2.78;1.40;;;;;;;;;;5053108;28;20032;-36
2022/04/12 02:53:36;;;;;;;1.40;1.10;;;;;;;;;;5053103;28;20021;-36
2022/04/12 02:56:01;;;;;;;4.18;0.95;;;;;;;;;;5053121;28;20447;-36
2022/04/12 02:58:27;;;;;;;2.38;1.48;;;;;;;;;;5053024;28;20028;-36
2022/04/12 03:00:52;;;;;;;2.35;1.25;;;;;;;;;;5053211;28;20032;-36
2022/04/12 03:03:17;;;;;;;1.83;1.40;;;;;;;;;;5053142;28;20361;-36
2022/04/12 03:05:43;;;;;;;2.90;1.77;;;;;;;;;;5052794;28;20023;-37
2022/04/12 03:08:08;;;;;;;1.10;0.90;;;;;;;;;;5052805;28;20399;-37
2022/04/12 03:10:34;;;;;;;1.30;1.20;;;;;;;;;;5052805;28;20106;-37
2022/04/12 03:12:59;;;;;;;1.13;0.93;;;;;;;;;;5052671;28;20033;-36
2022/04/12 03:15:24;;;;;;;3.40;1.30;;;;;;;;;;5052875;28;20162;-36
2022/04/12 03:17:50;;;;;;;2.53;1.20;;;;;;;;;;5052579;28;20506;-36
2022/04/12 03:20:15;;;;;;;2.05;1.20;;;;;;;;;;5052803;28;20016;-36
2022/04/12 03:22:42;;;;;;;0.80;0.80;;;;;;;;;;5052588;28;20106;-36
2022/04/12 03:25:09;;;;;;;4.57;1.13;;;;;;;;;;5052691;28;20029;-36
2022/04/12 03:27:34;;;;;;;2.25;0.98;;;;;;;;;;5052752;28;20029;-36
2022/04/12 03:29:59;;;;;;;1.48;1.08;;;;;;;;;;5052640;28;20032;-37
2022/04/12 03:32:25;;;;;;;1.20;1.10;;;;;;;;;;5052320;28;20045;-36
2022/04/12 03:34:51;;;;;;;1.70;1.13;;;;;;;;;;5052235;28;20025;-36
2022/04/12 03:37:16;;;;;;;2.42;1.17;;;;;;;;;;5052683;28;20044;-36
2022/04/12 03:39:43;;;;;;;1.30;1.10;;;;;;;;;;5052576;28;20019;-36
2022/04/12 03:42:11;;;;;;;1.25;1.15;;;;;;;;;;5052408;28;20029;-36
2022/04/12 03:44:40;;;;;;;5.30;1.30;;;;;;;;;;5052215;28;20448;-36
2022/04/12 03:47:05;;;;;;;0.98;0.98;;;;;;;;;;5052047;28;20041;-36
2022/04/12 03:49:31;;;;;;;1.50;1.05;;;;;;;;;;5051993;28;20040;-36
2022/04/12 03:51:56;;;;;;;3.75;3.25;;;;;;;;;;5052134;28;20064;-36
2022/04/12 03:54:21;;;;;;;12.20;6.13;;;;;;;;;;5052129;28;20363;-36
2022/04/12 03:56:47;;;;;;;1.50;1.23;;;;;;;;;;5051860;28;20035;-36
2022/04/12 03:59:12;;;;;;;4.82;2.17;;;;;;;;;;5051795;28;20036;-36
2022/04/12 04:01:38;;;;;;;2.30;1.50;;;;;;;;;;5051844;28;20037;-36
2022/04/12 04:04:03;;;;;;;1.77;1.23;;;;;;;;;;5052027;28;20167;-36
2022/04/12 04:06:29;;;;;;;4.20;1.30;;;;;;;;;;5051346;28;20040;-38
2022/04/12 04:08:54;;;;;;;1.75;1.60;;;;;;;;;;5051953;28;20546;-36
2022/04/12 04:11:20;;;;;;;2.15;1.20;;;;;;;;;;5051593;28;20037;-36
2022/04/12 04:13:45;;;;;;;1.95;1.00;;;;;;;;;;5051809;28;20025;-36
2022/04/12 04:16:11;;;;;;;1.65;1.17;;;;;;;;;;5051444;28;20052;-37
2022/04/12 04:18:36;;;;;;;1.27;1.17;;;;;;;;;;5051624;28;20068;-37
2022/04/12 04:21:02;;;;;;;3.28;1.23;;;;;;;;;;5051433;28;20033;-36
2022/04/12 04:23:27;;;;;;;0.90;0.90;;;;;;;;;;5051580;28;20036;-37
2022/04/12 04:25:53;;;;;;;8.27;1.40;;;;;;;;;;5051773;28;20056;-36
2022/04/12 04:28:21;;;;;;;2.05;1.10;;;;;;;;;;5051448;28;20509;-36
2022/04/12 04:30:50;;;;;;;1.13;0.90;;;;;;;;;;5051444;28;20110;-36
2022/04/12 04:33:17;;;;;;;2.08;1.20;;;;;;;;;;5051556;28;20060;-36
2022/04/12 04:35:43;;;;;;;3.22;1.10;;;;;;;;;;5051291;28;20471;-36
2022/04/12 04:38:09;;;;;;;2.05;1.10;;;;;;;;;;5051572;28;20104;-36
2022/04/12 04:40:34;;;;;;;2.40;1.20;;;;;;;;;;5051279;28;20575;-36
2022/04/12 04:42:59;;;;;;;2.38;1.17;;;;;;;;;;5051281;28;20021;-36
2022/04/12 04:45:25;;;;;;;1.17;0.80;;;;;;;;;;5051120;28;20495;-36
2022/04/12 04:47:52;;;;;;;1.27;1.17;;;;;;;;;;5051270;28;20037;-36
2022/04/12 04:50:18;;;;;;;4.57;1.10;;;;;;;;;;5051449;28;20029;-36
2022/04/12 04:52:43;;;;;;;1.88;1.30;;;;;;;;;;5051528;28;20017;-36
2022/04/12 04:55:09;;;;;;;1.40;1.10;;;;;;;;;;5051104;28;20041;-36
2022/04/12 04:57:39;;;;;;;1.23;1.05;;;;;;;;;;5049879;28;20023;-36
2022/04/12 05:00:05;;;;;;;1.73;1.20;;;;;;;;;;5050161;28;20052;-36
2022/04/12 05:02:32;;;;;;;2.60;1.15;;;;;;;;;;5049846;28;20025;-36
2022/04/12 05:04:57;;;;;;;1.80;1.05;;;;;;;;;;5051401;28;20028;-36
2022/04/12 05:07:26;;;;;;;1.40;1.30;;;;;;;;;;5051297;28;20027;-36
2022/04/12 05:09:52;;;;;;;1.80;1.23;;;;;;;;;;5051021;28;20476;-36
2022/04/12 05:12:17;;;;;;;2.17;1.13;;;;;;;;;;5050970;28;20021;-36
2022/04/12 05:14:43;;;;;;;1.85;1.23;;;;;;;;;;5051236;28;20040;-36
2022/04/12 05:17:11;;;;;;;1.25;1.15;;;;;;;;;;5050326;28;20033;-36
2022/04/12 05:19:36;;;;;;;2.53;1.05;;;;;;;;;;5054907;28;20040;-36
2022/04/12 05:22:02;;;;;;;1.98;1.27;;;;;;;;;;5054714;28;20025;-36
2022/04/12 05:24:27;;;;;;;3.53;1.55;;;;;;;;;;5055122;28;20086;-36
2022/04/12 05:26:53;;;;;;;0.93;0.82;;;;;;;;;;5054802;28;20032;-36
2022/04/12 05:29:18;;;;;;;1.95;1.42;;;;;;;;;;5054631;28;20033;-36
2022/04/12 05:31:44;;;;;;;1.02;0.93;;;;;;;;;;5054707;28;20028;-36
2022/04/12 05:34:09;;;;;;;1.50;1.00;;;;;;;;;;5054539;28;20089;-36
2022/04/12 05:36:34;;;;;;;2.65;1.08;;;;;;;;;;5054529;28;20064;-36
2022/04/12 05:39:00;;;;;;;1.90;1.30;;;;;;;;;;5054466;28;20116;-36
2022/04/12 05:41:25;;;;;;;3.83;1.20;;;;;;;;;;5054781;28;20039;-36
2022/04/12 05:43:51;;;;;;;4.18;0.90;;;;;;;;;;5054421;28;20032;-36
2022/04/12 05:46:17;;;;;;;2.58;1.20;;;;;;;;;;5054186;28;20084;-37
2022/04/12 05:48:42;;;;;;;3.22;1.33;;;;;;;;;;5054315;28;20491;-36
2022/04/12 05:51:08;;;;;;;1.13;1.02;;;;;;;;;;5054217;28;20057;-36
2022/04/12 05:53:34;;;;;;;2.72;1.00;;;;;;;;;;5054495;28;20029;-36
2022/04/12 05:56:00;;;;;;;4.20;1.30;;;;;;;;;;5054110;28;20052;-36
2022/04/12 05:58:25;;;;;;;1.10;1.00;;;;;;;;;;5054210;28;20025;-36
2022/04/12 06:00:50;;;;;;;3.38;1.20;;;;;;;;;;5054618;28;20029;-36
2022/04/12 06:03:16;;;;;;;1.50;1.17;;;;;;;;;;5054341;28;20124;-36
2022/04/12 06:05:41;;;;;;;1.85;1.35;;;;;;;;;;5053991;28;20680;-36
2022/04/12 06:08:07;;;;;;;2.30;1.50;;;;;;;;;;5053875;28;20479;-36
2022/04/12 06:10:33;;;;;;;1.33;1.23;;;;;;;;;;5054222;28;20075;-36
2022/04/12 06:12:59;;;;;;;1.70;1.48;;;;;;;;;;5054135;28;20486;-36
2022/04/12 06:15:25;;;;;;;4.20;1.38;;;;;;;;;;5053644;28;20593;-36
2022/04/12 06:17:50;;;;;;;2.13;1.27;;;;;;;;;;5054064;28;20591;-36
2022/04/12 06:20:17;;;;;;;1.95;1.60;;;;;;;;;;5053718;28;20049;-36
2022/04/12 06:22:42;;;;;;;3.47;1.05;;;;;;;;;;5054022;28;20037;-36
2022/04/12 06:25:09;;;;;;;2.33;1.00;;;;;;;;;;5053557;28;20360;-36
2022/04/12 06:27:35;;;;;;;1.85;1.65;;;;;;;;;;5053409;28;20021;-36
2022/04/12 06:30:24;;;;;;;1.10;0.95;;;;;;;;;;5053440;28;20024;-37
2022/04/12 06:32:50;;;;;;;4.75;1.27;;;;;;;;;;5053132;28;20037;-36
2022/04/12 06:35:15;;;;;;;1.58;1.33;;;;;;;;;;5053292;28;20070;-36
2022/04/12 06:37:42;;;;;;;2.00;1.50;;;;;;;;;;5053758;28;20494;-36
2022/04/12 06:40:09;;;;;;;6.30;1.98;;;;;;;;;;5053284;28;20055;-36
2022/04/12 06:42:34;;;;;;;2.08;1.20;;;;;;;;;;5053660;28;20029;-36
2022/04/12 06:45:00;;;;;;;7.05;0.98;;;;;;;;;;5053283;28;20067;-36
2022/04/12 06:47:25;;;;;;;2.13;1.30;;;;;;;;;;5053475;28;20033;-36
2022/04/12 06:49:51;;;;;;;1.27;1.15;;;;;;;;;;5053497;28;20048;-36
2022/04/12 06:52:18;;;;;;;0.95;0.95;;;;;;;;;;5053147;28;20025;-36
2022/04/12 06:54:44;;;;;;;1.75;1.13;;;;;;;;;;5053278;28;20029;-36
2022/04/12 06:57:09;;;;;;;8.93;2.00;;;;;;;;;;5053261;28;20032;-36
2022/04/12 06:59:35;;;;;;;2.85;1.95;;;;;;;;;;5052981;28;20104;-36
2022/04/12 07:02:03;;;;;;;2.22;1.15;;;;;;;;;;5052997;28;20037;-36
2022/04/12 07:04:29;;;;;;;1.73;1.30;;;;;;;;;;5053258;28;20367;-36
2022/04/12 07:06:56;;;;;;;4.55;1.75;;;;;;;;;;5052784;28;20029;-36
2022/04/12 07:09:22;;;;;;;1.63;1.30;;;;;;;;;;5053015;28;20028;-37
2022/04/12 07:11:48;;;;;;;4.45;0.95;;;;;;;;;;5052771;28;20021;-36
2022/04/12 07:14:13;;;;;;;2.25;1.65;;;;;;;;;;5052665;28;20474;-37
2022/04/12 07:16:38;;;;;;;2.08;1.50;;;;;;;;;;5052731;28;20041;-36
2022/04/12 07:19:04;;;;;;;6.95;1.55;;;;;;;;;;5052857;28;20021;-36
2022/04/12 07:21:30;;;;;;;2.58;1.48;;;;;;;;;;5052894;28;20094;-36
2022/04/12 07:23:56;;;;;;;1.85;1.50;;;;;;;;;;5052677;28;20027;-43
2022/04/12 07:26:22;;;;;;;2.22;1.63;;;;;;;;;;5052666;28;20033;-37
2022/04/12 07:28:47;;;;;;;2.88;1.50;;;;;;;;;;5052789;28;20021;-37
2022/04/12 07:31:12;;;;;;;1.10;0.93;;;;;;;;;;5051361;28;20028;-37
2022/04/12 07:33:38;;;;;;;1.50;0.98;;;;;;;;;;5052366;28;20044;-37
2022/04/12 07:36:04;;;;;;;2.42;1.42;;;;;;;;;;5052152;28;20041;-37
2022/04/12 07:38:29;;;;;;;3.08;1.08;;;;;;;;;;5052268;28;20049;-37
2022/04/12 07:40:55;;;;;;;2.22;1.35;;;;;;;;;;5051564;28;20075;-37
2022/04/12 07:43:20;;;;;;;2.00;1.00;;;;;;;;;;5052346;28;20032;-37
2022/04/12 07:45:46;;;;;;;1.58;1.15;;;;;;;;;;5052083;28;20049;-37
2022/04/12 07:48:12;;;;;;;1.02;0.88;;;;;;;;;;5052018;28;20057;-37
2022/04/12 07:50:39;;;;;;;1.00;0.73;;;;;;;;;;5052334;28;20035;-37
2022/04/12 07:53:04;;;;;;;1.05;0.65;;;;;;;;;;5051950;28;20017;-37
2022/04/12 07:55:30;;;;;;;1.27;1.00;;;;;;;;;;5052063;28;20047;-37
2022/04/12 07:57:55;;;;;;;1.23;0.85;;;;;;;;;;5050791;28;20024;-37
2022/04/12 08:00:21;;;;;;;3.97;0.93;;;;;;;;;;5052091;28;20032;-37
2022/04/12 08:02:47;;;;;;;3.47;0.93;;;;;;;;;;5051837;28;20490;-37
2022/04/12 08:05:12;;;;;;;1.10;1.05;;;;;;;;;;5051972;28;20036;-37
2022/04/12 08:07:39;;;;;;;3.53;0.80;;;;;;;;;;5052057;28;20099;-37
2022/04/12 08:10:05;;;;;;;5.57;1.27;;;;;;;;;;5051642;28;20021;-37
2022/04/12 08:12:31;;;;;;;3.95;0.70;;;;;;;;;;5051666;28;20467;-37
2022/04/12 08:18:32;;;;;;;0.85;0.75;;;;;;;;;;5051920;28;20036;-37
2022/04/12 08:20:57;;;;;;;0.70;0.60;;;;;;;;;;5051564;28;20029;-37
2022/04/12 08:23:24;;;;;;;0.52;0.50;;;;;;;;;;5051581;28;20020;-37
2022/04/12 08:25:50;;;;;;;2.08;0.52;;;;;;;;;;5051485;28;20037;-37
2022/04/12 08:28:15;;;;;;;0.60;0.60;;;;;;;;;;5051378;28;20135;-37
2022/04/12 08:30:41;;;;;;;0.50;0.50;;;;;;;;;;5051751;28;20032;-37
2022/04/12 08:33:06;;;;;;;1.63;0.73;;;;;;;;;;5051586;28;20021;-37
2022/04/12 08:35:32;;;;;;;0.73;0.70;;;;;;;;;;5051554;28;20422;-37
2022/04/12 08:37:57;;;;;;;1.08;0.63;;;;;;;;;;5050115;28;20017;-37
2022/04/12 08:40:23;;;;;;;0.70;0.57;;;;;;;;;;5051479;28;20033;-37
2022/04/12 08:42:48;;;;;;;0.85;0.45;;;;;;;;;;5051693;28;20399;-37
2022/04/12 08:45:14;;;;;;;3.63;0.77;;;;;;;;;;5049705;28;20094;-37
2022/04/12 08:47:40;;;;;;;1.23;0.90;;;;;;;;;;5051314;28;20029;-37
2022/04/12 08:50:06;;;;;;;0.85;0.50;;;;;;;;;;5051208;28;20392;-37
2022/04/12 08:52:32;;;;;;;0.80;0.70;;;;;;;;;;5054479;28;20032;-37
2022/04/12 08:54:57;;;;;;;0.65;0.52;;;;;;;;;;5055542;28;20612;-37
2022/04/12 08:57:23;;;;;;;0.63;0.63;;;;;;;;;;5055577;28;20025;-37
2022/04/12 08:59:48;;;;;;;1.90;0.77;;;;;;;;;;5055535;28;20033;-37
2022/04/12 09:02:14;;;;;;;2.38;0.98;;;;;;;;;;5055192;28;20033;-37
2022/04/12 09:04:39;;;;;;;0.85;0.70;;;;;;;;;;5055150;28;20075;-37
2022/04/12 09:07:11;;;;;;;0.52;0.52;;;;;;;;;;5055055;28;20049;-37
2022/04/12 09:09:37;;;;;;;1.02;0.90;;;;;;;;;;5055370;28;20024;-37
2022/04/12 09:12:04;;;;;;;0.93;0.50;;;;;;;;;;5055056;28;20467;-37
2022/04/12 09:14:44;;;;;;;1.15;0.90;;;;;;;;;;5055079;28;20474;-37
2022/04/12 09:17:11;;;;;;;0.90;0.73;;;;;;;;;;5054823;28;20132;-37
2022/04/12 09:19:46;;;;;;;0.85;0.63;;;;;;;;;;5055202;28;20025;-37
2022/04/12 09:22:13;;;;;;;0.85;0.73;;;;;;;;;;5054770;28;20116;-37
2022/04/12 09:24:45;;;;;;;1.85;0.90;;;;;;;;;;5054875;28;20017;-37
2022/04/12 09:27:23;;;;;;;1.73;0.57;;;;;;;;;;5054646;28;20056;-37
2022/04/12 09:30:01;;;;;;;1.35;0.80;;;;;;;;;;5053992;28;20039;-37
2022/04/12 09:32:28;;;;;;;1.70;0.88;;;;;;;;;;5054879;28;20041;-37
2022/04/12 09:34:54;;;;;;;0.98;0.77;;;;;;;;;;5054505;28;20028;-44
2022/04/12 09:37:21;;;;;;;2.67;1.40;;;;;;;;;;5054446;28;20472;-37
2022/04/12 09:40:07;;;;;;;1.33;0.90;;;;;;;;;;5054585;28;20767;-37
2022/04/12 09:42:54;;;;;;;2.40;1.15;;;;;;;;;;5053836;28;20051;-37
2022/04/12 09:45:19;;;;;;;2.35;0.82;;;;;;;;;;5054198;28;20041;-37
2022/04/12 09:47:46;;;;;;;2.83;1.50;;;;;;;;;;5054350;28;20029;-37
2022/04/12 09:50:12;;;;;;;2.28;0.80;;;;;;;;;;5054538;28;20444;-37
2022/04/12 09:52:37;;;;;;;3.67;1.48;;;;;;;;;;5054284;28;20052;-37
2022/04/12 09:55:05;;;;;;;0.80;0.77;;;;;;;;;;5054216;28;20072;-37
2022/04/12 09:57:30;;;;;;;1.35;0.70;;;;;;;;;;5054499;28;20044;-37
2022/04/12 09:59:56;;;;;;;6.10;0.95;;;;;;;;;;5054174;28;20029;-37
2022/04/12 10:02:23;;;;;;;0.80;0.60;;;;;;;;;;5053792;28;20090;-37
2022/04/12 10:04:50;;;;;;;1.00;0.70;;;;;;;;;;5053688;28;20167;-37
2022/04/12 10:07:17;;;;;;;3.10;0.70;;;;;;;;;;5054212;28;20352;-37
2022/04/12 10:09:43;;;;;;;2.75;1.13;;;;;;;;;;5053961;28;20029;-37
2022/04/12 10:12:08;;;;;;;4.80;1.50;;;;;;;;;;5054163;28;20028;-37
2022/04/12 10:14:34;;;;;;;2.97;1.30;;;;;;;;;;5053818;28;20036;-37
2022/04/12 10:17:00;;;;;;;1.85;1.15;;;;;;;;;;5053803;28;20100;-37
2022/04/12 10:19:26;;;;;;;2.10;1.10;;;;;;;;;;5053984;28;20025;-37
2022/04/12 10:21:52;;;;;;;2.25;1.55;;;;;;;;;;5053792;28;20356;-37
2022/04/12 10:24:18;;;;;;;2.17;1.10;;;;;;;;;;5053956;28;20033;-37
2022/04/12 10:26:46;;;;;;;5.75;1.42;;;;;;;;;;5053912;28;20044;-37
2022/04/12 10:29:13;;;;;;;2.65;0.70;;;;;;;;;;5053575;28;20112;-37
2022/04/12 10:31:52;;;;;;;3.72;1.38;;;;;;;;;;5053892;28;20086;-37
2022/04/12 10:34:18;;;;;;;3.53;1.55;;;;;;;;;;5053730;28;20171;-37
2022/04/12 10:36:52;;;;;;;3.53;1.35;;;;;;;;;;5053330;28;20500;-37
2022/04/12 10:39:19;;;;;;;4.68;1.63;;;;;;;;;;5053360;28;20021;-37
2022/04/12 10:41:47;;;;;;;4.22;1.58;;;;;;;;;;5053392;28;20036;-37
2022/04/12 10:44:20;;;;;;;2.47;1.50;;;;;;;;;;5053534;28;20083;-37
2022/04/12 10:46:50;;;;;;;7.93;1.58;;;;;;;;;;5053330;28;20127;-37
2022/04/12 10:49:19;;;;;;;3.35;1.75;;;;;;;;;;5053423;28;20400;-37
2022/04/12 10:51:46;;;;;;;3.80;1.60;;;;;;;;;;5053152;28;20513;-37
2022/04/12 10:54:30;;;;;;;4.28;1.35;;;;;;;;;;5053317;28;20036;-40
2022/04/12 10:57:14;;;;;;;1.98;0.75;;;;;;;;;;5053299;28;20433;-37
2022/04/12 10:59:40;;;;;;;3.20;1.05;;;;;;;;;;5053068;28;20042;-37
2022/04/12 11:02:11;;;;;;;7.57;1.30;;;;;;;;;;5052982;28;20024;-38
2022/04/12 11:04:36;;;;;;;3.72;1.23;;;;;;;;;;5052889;28;20425;-37
2022/04/12 11:07:02;;;;;;;3.75;1.58;;;;;;;;;;5053222;28;20024;-37
2022/04/12 11:09:27;;;;;;;3.85;1.60;;;;;;;;;;5052794;28;20041;-37
2022/04/12 11:11:53;;;;;;;3.78;2.13;;;;;;;;;;5052788;28;20021;-37
2022/04/12 11:14:32;;;;;;;1.23;0.93;;;;;;;;;;5052380;28;20025;-37
2022/04/12 11:17:17;;;;;;;5.45;1.27;;;;;;;;;;5052765;28;20103;-37
2022/04/12 11:19:50;;;;;;;4.30;1.17;;;;;;;;;;5052758;28;20025;-37
2022/04/12 11:22:17;;;;;;;1.98;0.98;;;;;;;;;;5052551;28;20051;-37
2022/04/12 11:24:43;;;;;;;2.38;1.77;;;;;;;;;;5052542;28;20031;-37
2022/04/12 11:27:12;;;;;;;6.13;1.77;;;;;;;;;;5052490;28;20032;-37
2022/04/12 11:29:38;;;;;;;5.25;2.00;;;;;;;;;;5052793;28;20016;-37
2022/04/12 11:32:05;;;;;;;1.83;1.50;;;;;;;;;;5052411;28;20043;-37
2022/04/12 11:34:31;;;;;;;3.15;1.63;;;;;;;;;;5052482;28;20086;-37
2022/04/12 11:36:58;;;;;;;2.15;1.30;;;;;;;;;;5052314;28;20075;-37
2022/04/12 11:39:27;;;;;;;6.88;1.42;;;;;;;;;;5052154;28;20021;-37
2022/04/12 11:41:57;;;;;;;4.88;1.48;;;;;;;;;;5052278;28;20028;-37
2022/04/12 11:44:23;;;;;;;3.08;1.75;;;;;;;;;;5052317;28;20025;-37
2022/04/12 11:46:56;;;;;;;10.73;1.95;;;;;;;;;;5052120;28;20134;-37
2022/04/12 11:49:26;;;;;;;1.88;1.23;;;;;;;;;;5052260;28;20036;-37
2022/04/12 11:51:52;;;;;;;2.55;2.13;;;;;;;;;;5052039;28;20132;-37
2022/04/12 11:54:23;;;;;;;3.53;2.08;;;;;;;;;;5051993;28;20398;-37
2022/04/12 11:56:53;;;;;;;2.08;1.23;;;;;;;;;;5051853;28;20128;-37
2022/04/12 11:59:20;;;;;;;1.80;0.95;;;;;;;;;;5052152;28;20044;-37
2022/04/12 12:01:46;;;;;;;5.88;2.15;;;;;;;;;;5051862;28;20061;-37
2022/04/12 12:04:11;;;;;;;5.80;2.38;;;;;;;;;;5051798;28;20075;-37
2022/04/12 12:06:54;;;;;;;8.98;3.10;;;;;;;;;;5051729;28;20476;-37
2022/04/12 12:09:19;;;;;;;7.03;2.78;;;;;;;;;;5051977;28;20032;-37
2022/04/12 12:11:46;;;;;;;7.28;2.55;;;;;;;;;;5051974;28;20075;-37
2022/04/12 12:14:12;;;;;;;3.10;2.08;;;;;;;;;;5051800;28;20029;-38
2022/04/12 12:16:37;;;;;;;5.47;2.85;;;;;;;;;;5051598;28;20040;-37
2022/04/12 12:19:03;;;;;;;8.10;2.13;;;;;;;;;;5050274;28;20043;-37
2022/04/12 12:21:29;;;;;;;3.17;2.20;;;;;;;;;;5051825;28;20024;-37
2022/04/12 12:23:55;;;;;;;2.47;1.95;;;;;;;;;;5051533;28;20033;-37
2022/04/12 12:26:28;;;;;;;4.22;2.50;;;;;;;;;;5051309;28;20028;-37
2022/04/12 12:28:58;;;;;;;6.10;3.15;;;;;;;;;;5051523;28;20024;-37
2022/04/12 12:31:24;;;;;;;5.10;2.38;;;;;;;;;;5051648;28;20029;-37
2022/04/12 12:33:49;;;;;;;9.77;2.90;;;;;;;;;;5051775;28;20040;-37
2022/04/12 12:36:18;;;;;;;2.58;1.77;;;;;;;;;;5051133;28;20383;-37
2022/04/12 12:38:44;;;;;;;2.88;1.98;;;;;;;;;;5051353;28;20033;-38
2022/04/12 12:41:09;;;;;;;2.22;1.92;;;;;;;;;;5050375;28;20021;-37
2022/04/12 12:43:35;;;;;;;7.82;2.00;;;;;;;;;;5051557;28;20383;-37
2022/04/12 12:46:05;;;;;;;4.15;1.88;;;;;;;;;;5051219;28;20061;-37
2022/04/12 12:48:32;;;;;;;4.30;1.73;;;;;;;;;;5051073;28;20045;-37
2022/04/12 12:51:02;;;;;;;3.90;2.28;;;;;;;;;;5051859;28;20040;-37
2022/04/12 12:53:27;;;;;;;8.55;2.72;;;;;;;;;;5051111;28;20479;-37
2022/04/12 12:55:53;;;;;;;5.55;2.67;;;;;;;;;;5051137;28;20067;-37
2022/04/12 12:58:19;;;;;;;6.25;1.85;;;;;;;;;;5051456;28;20025;-37
2022/04/12 13:00:45;;;;;;;6.22;4.00;;;;;;;;;;5051165;28;20071;-38
2022/04/12 13:03:15;;;;;;;6.90;3.47;;;;;;;;;;5049819;28;20048;-37
2022/04/12 13:05:44;;;;;;;3.55;2.78;;;;;;;;;;5051356;28;20083;-37
2022/04/12 13:08:09;;;;;;;3.72;2.38;;;;;;;;;;5049809;28;20033;-37
2022/04/12 13:10:38;;;;;;;3.60;2.88;;;;;;;;;;5051175;28;20024;-37
2022/04/12 13:13:06;;;;;;;5.70;2.60;;;;;;;;;;5051029;28;20025;-37
2022/04/12 13:15:33;;;;;;;7.50;2.97;;;;;;;;;;5050821;28;20478;-37
2022/04/12 13:17:59;;;;;;;3.80;2.33;;;;;;;;;;5051017;28;20510;-37
2022/04/12 13:20:25;;;;;;;3.22;2.38;;;;;;;;;;5050943;28;20459;-37
2022/04/12 13:22:50;;;;;;;7.45;2.42;;;;;;;;;;5051278;28;20076;-37
2022/04/12 13:25:19;;;;;;;6.15;2.15;;;;;;;;;;5051082;28;20490;-37
2022/04/12 13:27:49;;;;;;;6.25;1.83;;;;;;;;;;5050987;28;20123;-37
2022/04/12 13:30:15;;;;;;;3.40;2.22;;;;;;;;;;5051077;28;20063;-37
2022/04/12 13:32:43;;;;;;;3.60;2.50;;;;;;;;;;5050844;28;20025;-37
2022/04/12 13:35:12;;;;;;;4.32;2.30;;;;;;;;;;5050878;28;20025;-37
2022/04/12 13:37:38;;;;;;;5.03;2.22;;;;;;;;;;5051092;28;20028;-37
2022/04/12 13:40:05;;;;;;;10.23;2.97;;;;;;;;;;5054803;28;20410;-37
2022/04/12 13:42:30;;;;;;;4.07;2.63;;;;;;;;;;5054427;28;20061;-37
2022/04/12 13:44:56;;;;;;;4.38;2.88;;;;;;;;;;5054504;28;20108;-37
2022/04/12 13:47:21;;;;;;;2.03;1.77;;;;;;;;;;5054346;28;20029;-37
2022/04/12 13:49:47;;;;;;;4.47;2.05;;;;;;;;;;5054402;28;20029;-38
2022/04/12 13:52:12;;;;;;;2.22;1.65;;;;;;;;;;5054266;28;20032;-37
2022/04/12 13:54:38;;;;;;;4.35;2.42;;;;;;;;;;5054516;28;20025;-37
2022/04/12 13:57:03;;;;;;;4.75;2.88;;;;;;;;;;5054521;28;20041;-37
2022/04/12 13:59:29;;;;;;;3.08;2.10;;;;;;;;;;5054436;28;20159;-37
2022/04/12 14:01:54;;;;;;;4.50;2.70;;;;;;;;;;5052905;28;20467;-37
2022/04/12 14:04:21;;;;;;;6.50;2.45;;;;;;;;;;5054293;28;20025;-37
2022/04/12 14:06:46;;;;;;;3.45;2.05;;;;;;;;;;5052871;28;20025;-37
2022/04/12 14:09:12;;;;;;;6.03;2.65;;;;;;;;;;5053917;28;20021;-37
2022/04/12 14:11:37;;;;;;;5.63;2.55;;;;;;;;;;5054073;28;20132;-37
2022/04/12 14:14:04;;;;;;;5.38;3.03;;;;;;;;;;5054141;28;20048;-37
2022/04/12 14:16:29;;;;;;;4.25;2.10;;;;;;;;;;5053775;28;20044;-37
2022/04/12 14:18:55;;;;;;;6.40;2.45;;;;;;;;;;5054045;28;20028;-37
2022/04/12 14:21:20;;;;;;;4.28;2.50;;;;;;;;;;5053926;28;20467;-37
2022/04/12 14:23:46;;;;;;;5.50;2.22;;;;;;;;;;5053805;28;20059;-37
2022/04/12 14:26:12;;;;;;;3.25;1.40;;;;;;;;;;5053789;28;20039;-37
2022/04/12 14:28:37;;;;;;;4.70;2.15;;;;;;;;;;5053715;28;20440;-37
2022/04/12 14:31:05;;;;;;;7.78;1.90;;;;;;;;;;5053865;28;20053;-37
2022/04/12 14:33:30;;;;;;;5.55;3.08;;;;;;;;;;5053534;28;20029;-37
2022/04/12 14:35:56;;;;;;;2.58;2.10;;;;;;;;;;5053415;28;20095;-37
2022/04/12 14:38:25;;;;;;;5.15;2.38;;;;;;;;;;5053317;28;20013;-37
2022/04/12 14:40:54;;;;;;;4.50;2.20;;;;;;;;;;5053756;28;20439;-37
2022/04/12 14:43:19;;;;;;;2.55;2.00;;;;;;;;;;5053308;28;20071;-37
2022/04/12 14:45:46;;;;;;;2.95;1.88;;;;;;;;;;5053199;28;20049;-38